Time;durP1;ratioP1;P1;durP2;ratioP2;P2;SDS_P1;SDS_P2;PMS_P1;PMS_P2;Temp;Humidity;BMP_temperature;BMP_pressure;BME280_temperature;BME280_humidity;BME280_pressure;Samples;Min_cycle;Max_cycle;Signal;HPM_P1;HPM_P2
2022/11/05 00:09:28;;;;;;;;;;;;;;;7.38;91.98;96769.79;107694;1265;60594;-72
2022/11/05 00:09:30;;;;;;;;;;;;;;;7.78;86.79;96771.71;107622;1269;60538;-72
2022/11/05 00:17:40;;;;;;;;;;;;;;;7.72;89.84;96770.38;107642;1266;69307;-72
2022/11/05 00:20:12;;;;;;;;;;;;;;;7.70;90.14;96767.23;107620;1266;69902;-72
2022/11/05 00:25:30;;;;;;;;;;;;;;;7.68;87.78;96763.36;107675;1268;60491;-72
2022/11/05 00:28:01;;;;;;;;;;;;;;;7.68;87.49;96758.52;107642;1268;72054;-72
2022/11/05 00:30:30;;;;;;;;;;;;;;;7.67;87.69;96755.94;107644;1265;68616;-73
2022/11/05 00:33:02;;;;;;;;;;;;;;;7.68;87.48;96758.36;107667;1264;69164;-72
2022/11/05 00:35:31;;;;;;;;;;;;;;;7.68;87.64;96752.62;107656;1268;60586;-72
2022/11/05 00:38:00;;;;;;;;;;;;;;;7.67;88.15;96751.30;107656;1264;60518;-72
2022/11/05 00:40:30;;;;;;;;;;;;;;;7.67;87.71;96752.98;107653;1268;72209;-73
2022/11/05 00:45:48;;;;;;;;;;;;;;;7.64;87.28;96763.95;107611;1268;69239;-74
2022/11/05 00:51:06;;;;;;;;;;;;;;;7.65;89.08;96766.69;107666;1268;60493;-72
2022/11/05 00:53:35;;;;;;;;;;;;;;;7.63;89.67;96761.60;107629;1268;72333;-74
2022/11/05 00:56:05;;;;;;;;;;;;;;;7.63;89.77;96759.90;107669;1264;69841;-72
2022/11/05 00:58:35;;;;;;;;;;;;;;;7.62;90.01;96758.92;107653;1266;68665;-72
2022/11/05 01:01:04;;;;;;;;;;;;;;;7.60;90.05;96762.55;107670;1269;60528;-74
2022/11/05 01:03:34;;;;;;;;;;;;;;;7.57;89.75;96757.16;107700;1268;60971;-73
2022/11/05 01:06:10;;;;;;;;;;;;;;;7.52;88.59;96748.02;107629;1270;72259;-73
2022/11/05 01:08:40;;;;;;;;;;;;;;;7.46;88.43;96746.70;107639;1269;68673;-73
2022/11/05 01:11:31;;;;;;;;;;;;;;;7.40;88.03;96746.77;107630;1268;68377;-73
2022/11/05 01:14:03;;;;;;;;;;;;;;;7.35;88.39;96746.61;107652;1268;61039;-73
2022/11/05 01:16:35;;;;;;;;;;;;;;;7.31;89.44;96747.77;107677;1264;60952;-73
2022/11/05 01:19:06;;;;;;;;;;;;;;;7.26;90.13;96753.85;107667;1268;71362;-73
2022/11/05 01:21:35;;;;;;;;;;;;;;;7.17;90.88;96755.36;107659;1269;69068;-73
2022/11/05 01:24:06;;;;;;;;;;;;;;;7.09;92.23;96759.56;107619;1268;69118;-73
2022/11/05 01:26:35;;;;;;;;;;;;;;;7.02;91.55;96761.20;107634;1268;60610;-73
2022/11/05 01:29:06;;;;;;;;;;;;;;;6.98;90.81;96759.61;107669;1268;60670;-72
2022/11/05 01:31:37;;;;;;;;;;;;;;;6.94;91.67;96749.14;107664;1268;71364;-73
2022/11/05 01:34:07;;;;;;;;;;;;;;;6.93;90.23;96745.27;107687;1268;67275;-73
2022/11/05 01:36:37;;;;;;;;;;;;;;;6.91;88.95;96741.70;107581;1268;69214;-73
2022/11/05 01:39:07;;;;;;;;;;;;;;;6.89;89.38;96737.86;107660;1264;61072;-73
2022/11/05 01:41:37;;;;;;;;;;;;;;;6.88;92.66;96738.13;107657;1268;60494;-73
2022/11/05 01:44:25;;;;;;;;;;;;;;;6.87;93.25;96741.27;107697;1268;71393;-73
2022/11/05 01:46:55;;;;;;;;;;;;;;;6.87;93.11;96736.92;107686;1264;69084;-73
2022/11/05 01:49:32;;;;;;;;;;;;;;;6.88;90.85;96730.67;107593;1264;69485;-73
2022/11/05 01:52:03;;;;;;;;;;;;;;;6.85;92.84;96729.45;107659;1265;60583;-73
2022/11/05 01:54:34;;;;;;;;;;;;;;;6.86;90.70;96731.15;107676;1265;60548;-73
2022/11/05 01:57:05;;;;;;;;;;;;;;;6.89;90.87;96731.11;107653;1265;72942;-73
2022/11/05 01:59:40;;;;;;;;;;;;;;;6.92;89.36;96729.55;107654;1268;69100;-73
2022/11/05 02:02:09;;;;;;;;;;;;;;;6.92;90.70;96728.48;107643;1264;69908;-73
2022/11/05 02:04:42;;;;;;;;;;;;;;;6.92;90.91;96731.77;107630;1268;60495;-73
2022/11/05 02:07:14;;;;;;;;;;;;;;;6.93;91.38;96737.92;107638;1268;60473;-73
2022/11/05 02:10:00;;;;;;;;;;;;;;;6.93;90.81;96740.05;107661;1268;71260;-73
2022/11/05 02:12:32;;;;;;;;;;;;;;;6.91;91.30;96741.00;107665;1268;68359;-73
2022/11/05 02:15:02;;;;;;;;;;;;;;;6.91;91.84;96745.52;107679;1265;67838;-73
2022/11/05 02:17:34;;;;;;;;;;;;;;;6.90;92.79;96740.92;107630;1264;60572;-73
2022/11/05 02:20:14;;;;;;;;;;;;;;;6.87;92.50;96741.27;107657;1269;60478;-72
2022/11/05 02:22:44;;;;;;;;;;;;;;;6.85;92.27;96742.80;107638;1266;71439;-74
2022/11/05 02:25:37;;;;;;;;;;;;;;;6.83;92.78;96741.23;107670;1264;69150;-73
2022/11/05 02:28:27;;;;;;;;;;;;;;;6.79;93.04;96739.77;107482;1265;69326;-73
2022/11/05 02:31:16;;;;;;;;;;;;;;;6.75;91.89;96738.86;107650;1268;60522;-73
2022/11/05 02:33:55;;;;;;;;;;;;;;;6.70;92.06;96735.55;107652;1265;60507;-73
2022/11/05 02:36:42;;;;;;;;;;;;;;;6.65;92.05;96727.56;107635;1268;71236;-73
2022/11/05 02:39:31;;;;;;;;;;;;;;;6.62;92.00;96725.83;107660;1268;69220;-73
2022/11/05 02:42:00;;;;;;;;;;;;;;;6.60;94.42;96727.90;107646;1265;68505;-74
2022/11/05 02:44:33;;;;;;;;;;;;;;;6.57;92.82;96725.48;107642;1268;60562;-73
2022/11/05 02:47:07;;;;;;;;;;;;;;;6.58;91.05;96734.78;107642;1268;60474;-73
2022/11/05 02:49:54;;;;;;;;;;;;;;;6.59;91.48;96740.23;107643;1264;72344;-73
2022/11/05 02:52:35;;;;;;;;;;;;;;;6.55;90.72;96735.67;107637;1264;69692;-73
2022/11/05 02:55:05;;;;;;;;;;;;;;;6.51;92.26;96738.86;107646;1266;69232;-73
2022/11/05 02:57:35;;;;;;;;;;;;;;;6.47;93.72;96740.17;107640;1268;60515;-73
2022/11/05 03:00:07;;;;;;;;;;;;;;;6.41;93.57;96738.84;107652;1264;60568;-75
2022/11/05 03:02:38;;;;;;;;;;;;;;;6.34;92.86;96733.44;107637;1264;71350;-74
2022/11/05 03:05:08;;;;;;;;;;;;;;;6.30;93.79;96731.85;107662;1267;69218;-73
2022/11/05 03:07:46;;;;;;;;;;;;;;;6.31;91.33;96730.53;107657;1264;69198;-74
2022/11/05 03:10:24;;;;;;;;;;;;;;;6.34;91.60;96740.21;107620;1264;60571;-76
2022/11/05 03:13:21;;;;;;;;;;;;;;;6.35;91.28;96741.17;107662;1268;60683;-74
2022/11/05 03:15:54;;;;;;;;;;;;;;;6.30;91.91;96741.15;107651;1264;72187;-75
2022/11/05 03:18:27;;;;;;;;;;;;;;;6.24;92.90;96739.16;107688;1269;69201;-75
2022/11/05 03:21:12;;;;;;;;;;;;;;;6.15;92.88;96738.48;107704;1265;69765;-74
2022/11/05 03:24:00;;;;;;;;;;;;;;;6.08;93.49;96747.95;107696;1268;60531;-74
2022/11/05 03:26:37;;;;;;;;;;;;;;;6.01;94.27;96739.73;107677;1264;61026;-74
2022/11/05 03:29:13;;;;;;;;;;;;;;;5.98;95.90;96733.38;107675;1268;72806;-73
2022/11/05 03:31:44;;;;;;;;;;;;;;;5.96;94.20;96730.45;107660;1268;68461;-73
2022/11/05 03:34:17;;;;;;;;;;;;;;;5.95;92.94;96727.36;107643;1266;69188;-73
2022/11/05 03:36:49;;;;;;;;;;;;;;;5.95;93.43;96722.90;107644;1268;60573;-75
2022/11/05 03:39:25;;;;;;;;;;;;;;;5.95;91.70;96718.87;107669;1268;60541;-74
2022/11/05 03:41:56;;;;;;;;;;;;;;;5.97;91.23;96717.21;107663;1269;72287;-74
2022/11/05 03:44:29;;;;;;;;;;;;;;;6.01;91.56;96721.61;107636;1266;69668;-74
2022/11/05 03:47:04;;;;;;;;;;;;;;;6.04;92.16;96724.16;107684;1268;69145;-74
2022/11/05 03:49:38;;;;;;;;;;;;;;;6.05;92.67;96728.06;107645;1266;60517;-74
2022/11/05 03:52:15;;;;;;;;;;;;;;;6.05;93.59;96731.02;107649;1268;60482;-74
2022/11/05 03:54:45;;;;;;;;;;;;;;;6.06;92.18;96735.11;107633;1268;72802;-74
2022/11/05 03:57:15;;;;;;;;;;;;;;;6.09;91.59;96743.39;107636;1268;67617;-74
2022/11/05 03:59:46;;;;;;;;;;;;;;;6.09;91.64;96745.27;107629;1266;69758;-74
2022/11/05 04:02:17;;;;;;;;;;;;;;;6.04;93.32;96747.67;107632;1264;60596;-75
2022/11/05 04:04:48;;;;;;;;;;;;;;;6.02;95.20;96751.27;107663;1268;60533;-74
2022/11/05 04:18:30;;;;;;;;;;;;;;;6.07;95.83;96743.55;107639;1265;60530;-74
2022/11/05 04:26:35;;;;;;;;;;;;;;;6.11;91.71;96741.48;107653;1264;69296;-74
2022/11/05 04:31:52;;;;;;;;;;;;;;;6.12;95.58;96735.95;107629;1264;60526;-74
2022/11/05 04:34:21;;;;;;;;;;;;;;;6.13;95.89;96737.59;107674;1268;72203;-74
2022/11/05 04:36:51;;;;;;;;;;;;;;;6.13;96.71;96738.80;107640;1266;69218;-74
2022/11/05 04:39:21;;;;;;;;;;;;;;;6.12;96.36;96736.05;107584;1268;69756;-74
2022/11/05 04:41:51;;;;;;;;;;;;;;;6.17;93.43;96740.66;107669;1266;60882;-74
2022/11/05 04:44:20;;;;;;;;;;;;;;;6.20;92.80;96741.48;107668;1268;60926;-74
2022/11/05 04:46:49;;;;;;;;;;;;;;;6.21;92.95;96742.48;107619;1268;72157;-74
2022/11/05 04:49:18;;;;;;;;;;;;;;;6.21;93.33;96740.24;107652;1264;69156;-74
2022/11/05 04:51:48;;;;;;;;;;;;;;;6.22;94.49;96738.41;107628;1268;68345;-74
2022/11/05 04:54:17;;;;;;;;;;;;;;;6.26;95.79;96740.23;107637;1268;60494;-74
2022/11/05 04:56:47;;;;;;;;;;;;;;;6.29;95.03;96749.35;107590;1264;60526;-74
2022/11/05 04:59:17;;;;;;;;;;;;;;;6.34;95.02;96754.04;107661;1265;72651;-74
2022/11/05 05:01:50;;;;;;;;;;;;;;;6.35;93.97;96761.26;107687;1268;68393;-74
2022/11/05 05:04:19;;;;;;;;;;;;;;;6.28;93.21;96765.00;107633;1265;69942;-74
2022/11/05 05:06:48;;;;;;;;;;;;;;;6.14;92.79;96775.80;107633;1268;60542;-73
2022/11/05 05:09:16;;;;;;;;;;;;;;;6.01;92.77;96778.32;107636;1268;60531;-73
2022/11/05 05:11:45;;;;;;;;;;;;;;;5.93;93.07;96775.41;107666;1268;72193;-73
2022/11/05 05:14:14;;;;;;;;;;;;;;;5.89;93.87;96773.92;107645;1264;69610;-73
2022/11/05 05:16:43;;;;;;;;;;;;;;;5.86;95.54;96768.69;107632;1268;69276;-73
2022/11/05 05:19:12;;;;;;;;;;;;;;;5.90;95.83;96772.27;107649;1265;60515;-73
2022/11/05 05:21:41;;;;;;;;;;;;;;;5.94;95.21;96768.44;107676;1265;60519;-73
2022/11/05 05:24:11;;;;;;;;;;;;;;;5.98;95.19;96767.50;107663;1264;72215;-73
2022/11/05 05:26:42;;;;;;;;;;;;;;;6.03;96.29;96768.00;107620;1265;69179;-74
2022/11/05 05:29:11;;;;;;;;;;;;;;;6.09;97.05;96771.10;107658;1268;69678;-72
2022/11/05 05:31:39;;;;;;;;;;;;;;;6.13;95.98;96771.31;107653;1265;60567;-73
2022/11/05 05:34:12;;;;;;;;;;;;;;;6.19;95.72;96771.80;107630;1268;60585;-74
2022/11/05 05:36:40;;;;;;;;;;;;;;;6.26;94.62;96777.06;107661;1268;72842;-73
2022/11/05 05:39:12;;;;;;;;;;;;;;;6.35;94.73;96779.09;107641;1264;69265;-75
2022/11/05 05:41:41;;;;;;;;;;;;;;;6.43;95.23;96778.92;107624;1264;69090;-73
2022/11/05 05:44:10;;;;;;;;;;;;;;;6.49;95.42;96782.84;107683;1268;60569;-73
2022/11/05 05:46:39;;;;;;;;;;;;;;;6.53;94.70;96788.06;107682;1268;60520;-74
2022/11/05 05:49:10;;;;;;;;;;;;;;;6.55;93.84;96790.34;107673;1264;72251;-73
2022/11/05 05:51:40;;;;;;;;;;;;;;;6.52;93.57;96799.02;107643;1264;69208;-73
2022/11/05 05:54:09;;;;;;;;;;;;;;;6.49;93.31;96794.97;107630;1268;68464;-73
2022/11/05 05:56:38;;;;;;;;;;;;;;;6.47;93.98;96800.61;107622;1264;60580;-73
2022/11/05 05:59:06;;;;;;;;;;;;;;;6.49;94.65;96805.86;107622;1268;60945;-73
2022/11/05 06:01:35;;;;;;;;;;;;;;;6.52;95.32;96808.09;107664;1264;70702;-74
2022/11/05 06:04:04;;;;;;;;;;;;;;;6.59;95.33;96810.38;107648;1265;69520;-73
2022/11/05 06:06:32;;;;;;;;;;;;;;;6.66;95.44;96805.92;107639;1268;69266;-73
2022/11/05 06:09:01;;;;;;;;;;;;;;;6.73;95.57;96807.58;107649;1268;60601;-73
2022/11/05 06:11:30;;;;;;;;;;;;;;;6.80;95.75;96808.06;107673;1265;60540;-74
2022/11/05 06:13:58;;;;;;;;;;;;;;;6.90;95.63;96817.79;107630;1268;72815;-73
2022/11/05 06:16:28;;;;;;;;;;;;;;;7.00;95.80;96822.89;107677;1268;68096;-74
2022/11/05 06:18:57;;;;;;;;;;;;;;;7.07;95.94;96828.27;107875;1265;69811;-74
2022/11/05 06:21:25;;;;;;;;;;;;;;;7.14;94.68;96838.21;107975;1268;60560;-74
2022/11/05 06:23:54;;;;;;;;;;;;;;;7.17;93.33;96840.96;108179;1268;60511;-74
2022/11/05 06:26:23;;;;;;;;;;;;;;;7.18;92.79;96836.58;107653;1268;72023;-74
2022/11/05 06:28:51;;;;;;;;;;;;;;;7.17;95.02;96833.70;107652;1264;68660;-75
2022/11/05 06:31:20;;;;;;;;;;;;;;;7.22;95.98;96834.21;107770;1268;68500;-74
2022/11/05 06:33:49;;;;;;;;;;;;;;;7.29;95.51;96833.05;107620;1268;60875;-74
2022/11/05 06:36:18;;;;;;;;;;;;;;;7.37;95.38;96833.36;107648;1266;60556;-74
2022/11/05 06:38:47;;;;;;;;;;;;;;;7.46;95.50;96831.13;107661;1268;72201;-74
2022/11/05 06:41:15;;;;;;;;;;;;;;;7.57;94.13;96832.46;107641;1266;69111;-74
2022/11/05 06:43:44;;;;;;;;;;;;;;;7.66;92.97;96828.38;107630;1268;69916;-74
2022/11/05 06:46:12;;;;;;;;;;;;;;;7.73;93.19;96829.60;107636;1264;60560;-74
2022/11/05 06:48:41;;;;;;;;;;;;;;;7.81;93.11;96832.35;107666;1268;60871;-74
2022/11/05 06:51:09;;;;;;;;;;;;;;;7.91;93.35;96840.67;107657;1268;72391;-74
2022/11/05 06:53:38;;;;;;;;;;;;;;;7.99;93.60;96842.19;107630;1268;68793;-74
2022/11/05 06:56:07;;;;;;;;;;;;;;;8.03;93.66;96847.23;107677;1265;69143;-74
2022/11/05 06:58:35;;;;;;;;;;;;;;;8.04;93.32;96848.91;107620;1264;60539;-74
2022/11/05 07:01:07;;;;;;;;;;;;;;;8.07;94.02;96850.44;107665;1264;60574;-74
2022/11/05 07:03:36;;;;;;;;;;;;;;;8.12;94.02;96851.29;107638;1265;72183;-74
2022/11/05 07:06:06;;;;;;;;;;;;;;;8.19;92.84;96848.52;107669;1263;69106;-74
2022/11/05 07:08:36;;;;;;;;;;;;;;;8.25;91.92;96845.70;107666;1264;68689;-74
2022/11/05 07:11:04;;;;;;;;;;;;;;;8.30;91.83;96840.24;107629;1268;60577;-74
2022/11/05 07:13:33;;;;;;;;;;;;;;;8.39;92.70;96838.63;107625;1266;60466;-73
2022/11/05 07:16:02;;;;;;;;;;;;;;;8.47;91.71;96838.05;107670;1268;71572;-73
2022/11/05 07:18:30;;;;;;;;;;;;;;;8.55;90.98;96834.96;107643;1268;68359;-73
2022/11/05 07:20:59;;;;;;;;;;;;;;;8.62;90.77;96835.67;107644;1268;68423;-74
2022/11/05 07:23:28;;;;;;;;;;;;;;;8.70;90.60;96838.56;107619;1268;60491;-74
2022/11/05 07:25:58;;;;;;;;;;;;;;;8.79;91.44;96834.25;107663;1269;60499;-74
2022/11/05 07:28:26;;;;;;;;;;;;;;;8.90;91.58;96835.35;107193;1268;627998;-74
2022/11/05 07:30:57;;;;;;;;;;;;;;;8.98;90.94;96833.67;107633;1266;68726;-74
2022/11/05 07:33:25;;;;;;;;;;;;;;;9.07;90.21;96835.80;107615;1265;69930;-74
2022/11/05 07:35:59;;;;;;;;;;;;;;;9.17;89.50;96836.73;107616;1265;60511;-74
2022/11/05 07:38:28;;;;;;;;;;;;;;;9.27;89.20;96835.86;107705;1268;60536;-74
2022/11/05 07:41:00;;;;;;;;;;;;;;;9.35;89.55;96831.59;107651;1266;72162;-74
2022/11/05 07:43:28;;;;;;;;;;;;;;;9.33;89.25;96835.88;107670;1264;68470;-73
2022/11/05 07:45:57;;;;;;;;;;;;;;;9.21;88.78;96835.94;107652;1268;68358;-74
2022/11/05 07:48:26;;;;;;;;;;;;;;;9.06;89.01;96833.61;107657;1268;60598;-74
2022/11/05 07:50:55;;;;;;;;;;;;;;;9.07;89.12;96825.17;107680;1265;60525;-74
2022/11/05 07:53:24;;;;;;;;;;;;;;;9.08;89.20;96831.77;107681;1264;72209;-74
2022/11/05 07:55:53;;;;;;;;;;;;;;;9.15;89.30;96830.33;107644;1265;70037;-74
2022/11/05 07:58:21;;;;;;;;;;;;;;;9.24;89.22;96833.10;107640;1268;69973;-74
2022/11/05 08:00:50;;;;;;;;;;;;;;;9.30;88.12;96833.55;107672;1268;60539;-74
2022/11/05 08:03:19;;;;;;;;;;;;;;;9.36;88.02;96832.02;107639;1268;60474;-74
2022/11/05 08:05:48;;;;;;;;;;;;;;;9.42;87.22;96832.05;107654;1265;71263;-74
2022/11/05 08:08:18;;;;;;;;;;;;;;;9.47;87.06;96833.26;107624;1268;68535;-74
2022/11/05 08:10:47;;;;;;;;;;;;;;;9.56;87.06;96838.80;107639;1268;69187;-74
2022/11/05 08:13:16;;;;;;;;;;;;;;;9.66;86.92;96839.40;107655;1268;60565;-74
2022/11/05 08:15:44;;;;;;;;;;;;;;;9.75;86.82;96841.85;107691;1264;60470;-74
2022/11/05 08:18:14;;;;;;;;;;;;;;;9.81;85.93;96843.87;107652;1266;72812;-74
2022/11/05 08:20:43;;;;;;;;;;;;;;;9.90;86.14;96845.05;107693;1266;68367;-74
2022/11/05 08:23:12;;;;;;;;;;;;;;;9.95;85.31;96845.17;107603;1266;68473;-74
2022/11/05 08:25:42;;;;;;;;;;;;;;;10.03;85.39;96843.85;107626;1268;60528;-75
2022/11/05 08:28:11;;;;;;;;;;;;;;;10.11;85.50;96840.61;107688;1268;60597;-75
2022/11/05 08:30:40;;;;;;;;;;;;;;;10.19;85.32;96839.92;107681;1264;72038;-73
2022/11/05 08:33:10;;;;;;;;;;;;;;;10.29;85.18;96848.03;107672;1268;69816;-75
2022/11/05 08:35:40;;;;;;;;;;;;;;;10.37;84.46;96846.75;107646;1268;69876;-73
2022/11/05 08:38:12;;;;;;;;;;;;;;;10.44;84.20;96846.70;107664;1268;60535;-72
2022/11/05 08:40:42;;;;;;;;;;;;;;;10.51;83.99;96854.45;107644;1268;60922;-75
2022/11/05 08:43:12;;;;;;;;;;;;;;;10.58;84.12;96851.58;107628;1265;72688;-73
2022/11/05 08:45:41;;;;;;;;;;;;;;;10.62;83.05;96857.55;107646;1264;69091;-73
2022/11/05 08:48:14;;;;;;;;;;;;;;;10.59;82.56;96856.75;107611;1266;68741;-73
2022/11/05 08:50:44;;;;;;;;;;;;;;;10.61;82.33;96858.30;107638;1268;60503;-73
2022/11/05 08:53:12;;;;;;;;;;;;;;;10.58;81.25;96862.60;107660;1264;60526;-73
2022/11/05 08:55:42;;;;;;;;;;;;;;;10.65;82.54;96859.42;107644;1264;72828;-75
2022/11/05 08:58:13;;;;;;;;;;;;;;;10.72;82.21;96858.13;107641;1264;68387;-73
2022/11/05 09:00:46;;;;;;;;;;;;;;;10.77;81.90;96858.46;107672;1269;68510;-73
2022/11/05 09:03:15;;;;;;;;;;;;;;;10.85;81.30;96857.80;107652;1264;60499;-73
2022/11/05 09:05:44;;;;;;;;;;;;;;;10.93;80.39;96857.30;107648;1264;60529;-73
2022/11/05 09:08:16;;;;;;;;;;;;;;;11.06;81.71;96852.02;107673;1268;72137;-73
2022/11/05 09:10:45;;;;;;;;;;;;;;;11.20;82.50;96849.98;107650;1264;69112;-75
2022/11/05 09:13:14;;;;;;;;;;;;;;;11.33;82.74;96848.01;107671;1264;69172;-74
2022/11/05 09:15:48;;;;;;;;;;;;;;;11.47;82.77;96850.14;107657;1268;60580;-75
2022/11/05 09:18:17;;;;;;;;;;;;;;;11.59;83.07;96854.72;107668;1268;60577;-76
2022/11/05 09:20:46;;;;;;;;;;;;;;;11.70;81.80;96854.90;107676;1268;72203;-73
2022/11/05 09:23:15;;;;;;;;;;;;;;;11.83;82.21;96857.70;107826;1264;69359;-74
2022/11/05 09:25:43;;;;;;;;;;;;;;;11.95;82.06;96858.92;107765;1263;69937;-75
2022/11/05 09:28:19;;;;;;;;;;;;;;;12.00;81.16;96857.81;107762;1268;60983;-73
2022/11/05 09:30:49;;;;;;;;;;;;;;;12.02;80.70;96857.44;107638;1264;60635;-73
2022/11/05 09:33:18;;;;;;;;;;;;;;;12.04;78.28;96855.92;107633;1264;72161;-75
2022/11/05 09:35:47;;;;;;;;;;;;;;;12.21;79.62;96851.77;107673;1268;68302;-75
2022/11/05 09:38:15;;;;;;;;;;;;;;;12.34;77.91;96854.45;107641;1266;69931;-75
2022/11/05 09:40:53;;;;;;;;;;;;;;;12.50;77.39;96850.21;107602;1264;60562;-75
2022/11/05 09:43:25;;;;;;;;;;;;;;;12.69;78.96;96850.96;107660;1265;60518;-75
2022/11/05 09:46:01;;;;;;;;;;;;;;;12.87;79.02;96852.52;107625;1269;72836;-75
2022/11/05 09:48:31;;;;;;;;;;;;;;;13.02;79.33;96848.48;107649;1268;67625;-75
2022/11/05 09:51:00;;;;;;;;;;;;;;;13.19;78.52;96844.66;107652;1268;68510;-74
2022/11/05 09:53:28;;;;;;;;;;;;;;;13.35;76.70;96844.95;107660;1268;60593;-75
2022/11/05 09:55:59;;;;;;;;;;;;;;;13.51;76.57;96844.67;107654;1268;60535;-75
2022/11/05 09:58:38;;;;;;;;;;;;;;;13.66;76.12;96845.36;107642;1269;72121;-75
2022/11/05 10:01:11;;;;;;;;;;;;;;;13.85;75.57;96848.88;107634;1267;69240;-75
2022/11/05 10:03:45;;;;;;;;;;;;;;;14.01;75.64;96850.27;107629;1268;69727;-75
2022/11/05 10:06:18;;;;;;;;;;;;;;;14.15;76.95;96850.90;107666;1268;60549;-75
2022/11/05 10:09:10;;;;;;;;;;;;;;;14.24;75.15;96850.90;107647;1264;60534;-75
2022/11/05 10:12:02;;;;;;;;;;;;;;;14.32;75.21;96846.48;107621;1268;72243;-74
2022/11/05 10:14:35;;;;;;;;;;;;;;;14.37;74.99;96845.23;107488;1264;69834;-74
2022/11/05 10:17:08;;;;;;;;;;;;;;;14.43;75.40;96845.88;107638;1268;68492;-74
2022/11/05 10:19:46;;;;;;;;;;;;;;;14.47;75.24;96843.02;107652;1268;60597;-76
2022/11/05 10:22:16;;;;;;;;;;;;;;;14.50;74.04;96844.52;107655;1265;60463;-76
2022/11/05 10:24:46;;;;;;;;;;;;;;;14.46;72.14;96842.40;107660;1268;72761;-75
2022/11/05 10:27:27;;;;;;;;;;;;;;;14.47;72.98;96838.09;107802;1268;69060;-74
2022/11/05 10:29:56;;;;;;;;;;;;;;;14.50;71.03;96834.05;107745;1265;67344;-75
2022/11/05 10:32:27;;;;;;;;;;;;;;;14.54;71.03;96828.56;107601;1265;60563;-74
2022/11/05 10:34:58;;;;;;;;;;;;;;;14.61;71.21;96826.79;107677;1268;60471;-75
2022/11/05 10:37:27;;;;;;;;;;;;;;;14.68;70.84;96822.58;107652;1268;73180;-74
2022/11/05 10:39:56;;;;;;;;;;;;;;;14.77;71.27;96823.11;107675;1268;69213;-74
2022/11/05 10:42:25;;;;;;;;;;;;;;;14.85;70.23;96826.59;107698;1265;69145;-74
2022/11/05 10:44:56;;;;;;;;;;;;;;;14.96;69.57;96831.71;107636;1264;60504;-74
2022/11/05 10:47:48;;;;;;;;;;;;;;;15.17;69.24;96833.52;107659;1268;60496;-74
2022/11/05 10:50:18;;;;;;;;;;;;;;;15.41;69.37;96832.80;107613;1268;72683;-75
2022/11/05 10:52:47;;;;;;;;;;;;;;;15.61;69.63;96829.05;107620;1265;69259;-75
2022/11/05 10:55:27;;;;;;;;;;;;;;;15.76;66.20;96825.20;107610;1264;68702;-74
2022/11/05 10:58:07;;;;;;;;;;;;;;;15.92;65.32;96824.63;107630;1266;60583;-74
2022/11/05 11:00:36;;;;;;;;;;;;;;;16.00;61.94;96825.32;107630;1264;60573;-74
2022/11/05 11:03:24;;;;;;;;;;;;;;;16.10;60.32;96830.83;107670;1268;72184;-74
2022/11/05 11:05:59;;;;;;;;;;;;;;;16.21;61.13;96826.34;107603;1265;69183;-75
2022/11/05 11:08:29;;;;;;;;;;;;;;;16.28;61.41;96824.35;107680;1267;69143;-74
2022/11/05 11:11:01;;;;;;;;;;;;;;;16.34;62.37;96822.35;107645;1265;60579;-74
2022/11/05 11:13:48;;;;;;;;;;;;;;;16.41;62.32;96822.27;107659;1268;60519;-74
2022/11/05 11:16:21;;;;;;;;;;;;;;;16.50;61.68;96821.05;107666;1265;71723;-74
2022/11/05 11:19:00;;;;;;;;;;;;;;;16.56;61.49;96818.20;107664;1264;69126;-74
2022/11/05 11:21:29;;;;;;;;;;;;;;;16.64;61.95;96813.38;107633;1266;69442;-74
2022/11/05 11:24:01;;;;;;;;;;;;;;;16.68;61.63;96811.11;107641;1268;60577;-74
2022/11/05 11:26:34;;;;;;;;;;;;;;;16.70;59.45;96807.40;107647;1268;60467;-74
2022/11/05 11:29:21;;;;;;;;;;;;;;;16.76;59.36;96808.35;107671;1269;72659;-74
2022/11/05 11:31:53;;;;;;;;;;;;;;;16.87;60.29;96800.69;107663;1264;69031;-74
2022/11/05 11:34:33;;;;;;;;;;;;;;;17.00;59.63;96805.99;107623;1265;69227;-74
2022/11/05 11:37:06;;;;;;;;;;;;;;;17.07;59.36;96810.38;107612;1264;60544;-75
2022/11/05 11:39:36;;;;;;;;;;;;;;;17.14;59.66;96808.52;107667;1268;60508;-74
2022/11/05 11:42:11;;;;;;;;;;;;;;;17.20;58.39;96806.98;107676;1265;71905;-74
2022/11/05 11:44:42;;;;;;;;;;;;;;;17.17;57.82;96805.20;107650;1268;69185;-74
2022/11/05 11:47:12;;;;;;;;;;;;;;;17.22;58.33;96801.12;107670;1268;69901;-74
2022/11/05 11:49:41;;;;;;;;;;;;;;;17.30;58.84;96801.48;107659;1261;60565;-74
2022/11/05 11:52:11;;;;;;;;;;;;;;;17.30;58.14;96803.14;107628;1264;60597;-75
2022/11/05 11:54:40;;;;;;;;;;;;;;;17.20;58.02;96799.38;107688;1268;71219;-76
2022/11/05 11:57:22;;;;;;;;;;;;;;;17.27;58.48;96799.89;107824;1268;68460;-72
2022/11/05 11:59:52;;;;;;;;;;;;;;;17.26;57.91;96797.62;107672;1268;69875;-75
2022/11/05 12:02:54;;;;;;;;;;;;;;;17.38;58.52;96793.42;107660;1265;60551;-75
2022/11/05 12:05:38;;;;;;;;;;;;;;;17.50;57.39;96793.83;107654;1268;60530;-76
2022/11/05 12:08:09;;;;;;;;;;;;;;;17.59;57.87;96793.98;107626;1268;71281;-76
2022/11/05 12:10:47;;;;;;;;;;;;;;;17.67;58.03;96794.20;107639;1268;69095;-74
2022/11/05 12:13:19;;;;;;;;;;;;;;;17.70;56.51;96794.95;107635;1264;68456;-74
2022/11/05 12:15:54;;;;;;;;;;;;;;;17.80;56.75;96793.13;107627;1269;60570;-76
2022/11/05 12:18:46;;;;;;;;;;;;;;;17.94;56.00;96796.80;107768;1268;60497;-75
2022/11/05 12:21:20;;;;;;;;;;;;;;;18.23;56.42;96800.09;107689;1268;71510;-75
2022/11/05 12:24:32;;;;;;;;;;;;;;;18.46;54.52;96800.64;107762;1268;68682;-75
2022/11/05 12:27:03;;;;;;;;;;;;;;;18.69;57.34;96806.71;107762;1265;69237;-76
2022/11/05 12:29:50;;;;;;;;;;;;;;;18.86;55.69;96806.30;107754;1269;60527;-75
2022/11/05 12:32:25;;;;;;;;;;;;;;;19.03;53.33;96807.64;107674;1265;60463;-75
2022/11/05 12:35:00;;;;;;;;;;;;;;;19.12;52.78;96808.92;107653;1265;71720;-75
2022/11/05 12:37:29;;;;;;;;;;;;;;;19.12;51.24;96805.04;107634;1268;68467;-75
2022/11/05 12:40:16;;;;;;;;;;;;;;;19.09;51.44;96806.06;107776;1268;69388;-74
2022/11/05 12:42:50;;;;;;;;;;;;;;;19.08;51.62;96806.00;107754;1264;60499;-74
2022/11/05 12:45:19;;;;;;;;;;;;;;;19.10;53.25;96809.80;107652;1269;60449;-72
2022/11/05 12:47:47;;;;;;;;;;;;;;;19.09;54.07;96811.36;107665;1268;71493;-75
2022/11/05 12:50:34;;;;;;;;;;;;;;;19.01;52.92;96814.71;107646;1264;68716;-75
2022/11/05 12:53:03;;;;;;;;;;;;;;;18.96;54.34;96819.79;107610;1268;69761;-77
2022/11/05 12:55:36;;;;;;;;;;;;;;;18.88;53.04;96821.08;107752;1265;60529;-73
2022/11/05 12:58:12;;;;;;;;;;;;;;;18.86;53.70;96823.67;107687;1268;60589;-75
2022/11/05 13:00:44;;;;;;;;;;;;;;;18.83;52.79;96820.22;107656;1268;72227;-74
2022/11/05 13:03:27;;;;;;;;;;;;;;;18.80;54.74;96821.89;107640;1268;69373;-74
2022/11/05 13:05:59;;;;;;;;;;;;;;;18.77;55.72;96821.39;107640;1268;69104;-74
2022/11/05 13:08:56;;;;;;;;;;;;;;;18.62;53.60;96819.61;107631;1265;60865;-73
2022/11/05 13:11:34;;;;;;;;;;;;;;;18.48;55.30;96818.27;107613;1264;60515;-74
2022/11/05 13:14:08;;;;;;;;;;;;;;;18.28;55.68;96811.34;107641;1265;71471;-73
2022/11/05 13:17:03;;;;;;;;;;;;;;;18.10;56.28;96813.34;107627;1268;68678;-73
2022/11/05 13:19:53;;;;;;;;;;;;;;;17.98;56.82;96815.13;107512;1268;69283;-75
2022/11/05 13:22:33;;;;;;;;;;;;;;;17.85;56.97;96815.11;107647;1268;61016;-74
2022/11/05 13:25:11;;;;;;;;;;;;;;;17.70;57.24;96819.10;107627;1268;60503;-73
2022/11/05 13:27:43;;;;;;;;;;;;;;;17.51;57.69;96817.30;107643;1265;72182;-74
2022/11/05 13:30:15;;;;;;;;;;;;;;;17.21;57.64;96813.70;107662;1268;69122;-73
2022/11/05 13:32:47;;;;;;;;;;;;;;;16.93;58.60;96815.96;107608;1265;69276;-74
2022/11/05 13:35:19;;;;;;;;;;;;;;;16.72;59.28;96818.95;107632;1264;60528;-74
2022/11/05 13:40:38;;;;;;;;;;;;;;;16.44;60.36;96819.14;107674;1269;72783;-74
2022/11/05 13:43:06;;;;;;;;;;;;;;;16.36;60.67;96822.17;107652;1272;68236;-74
2022/11/05 13:45:53;;;;;;;;;;;;;;;16.24;60.99;96828.00;107642;1266;68738;-74
2022/11/05 13:48:41;;;;;;;;;;;;;;;16.05;61.52;96829.48;107616;1268;60881;-73
2022/11/05 13:51:18;;;;;;;;;;;;;;;15.86;62.39;96830.39;107616;1265;60587;-73
2022/11/05 13:53:58;;;;;;;;;;;;;;;15.77;62.38;96828.95;107668;1266;71850;-74